KLM789 TNCM-SYCJ
Flight info
| Callsign | KLM789 |
|---|---|
| Flight time | 1h 49m |
| Altitude | 41000 |
| Route | MODOR2 ZPATA UL329 KORTO UG449 LEPOD UA312 LOKIT A312 MEXEN |
| Aircraft | MD11/H-SDE1E2E3FGHIJ2J3J4J5M1RWXY/LB1D1 |
Departure
| Time | 2026-04-25 16:46 |
|---|---|
| Airport | Princess Juliana International Airport (TNCM) |
Arrival
| Time | 2026-04-25 18:35 |
|---|---|
| Airport | Cheddi Jagan International Airport (SYCJ) |
| Time | Latitude | Longitude | Altitude | Speed | Heading |
|---|---|---|---|---|---|
| 2026-04-25 16:06 | 18.04328 | -63.11294 | 36 ft | 0 kts | 352° |
| 2026-04-25 16:34 | 18.04322 | -63.11294 | 36 ft | 4 kts | 352° |
| 2026-04-25 16:35 | 18.04296 | -63.11291 | 34 ft | 4 kts | 4° |
| 2026-04-25 16:35 | 18.04273 | -63.11296 | 33 ft | 4 kts | 37° |
| 2026-04-25 16:35 | 18.04255 | -63.11312 | 33 ft | 4 kts | 50° |
| 2026-04-25 16:35 | 18.04241 | -63.11334 | 34 ft | 4 kts | 73° |
| 2026-04-25 16:36 | 18.04237 | -63.11361 | 36 ft | 4 kts | 90° |
| 2026-04-25 16:36 | 18.04237 | -63.11370 | 36 ft | 4 kts | 89° |
| 2026-04-25 16:36 | 18.04237 | -63.11379 | 36 ft | 4 kts | 85° |
| 2026-04-25 16:41 | 18.04173 | -63.11298 | 36 ft | 13 kts | 172° |
| 2026-04-25 16:42 | 18.04133 | -63.11294 | 35 ft | 5 kts | 174° |
| 2026-04-25 16:42 | 18.04094 | -63.11290 | 34 ft | 8 kts | 174° |
| 2026-04-25 16:42 | 18.04043 | -63.11314 | 35 ft | 9 kts | 230° |
| 2026-04-25 16:42 | 18.04020 | -63.11384 | 35 ft | 12 kts | 261° |
| 2026-04-25 16:43 | 18.04005 | -63.11489 | 35 ft | 16 kts | 262° |
| 2026-04-25 16:43 | 18.03987 | -63.11616 | 35 ft | 18 kts | 261° |
| 2026-04-25 16:43 | 18.03970 | -63.11742 | 35 ft | 17 kts | 261° |
| 2026-04-25 16:43 | 18.03966 | -63.11848 | 35 ft | 13 kts | 282° |
| 2026-04-25 16:44 | 18.03983 | -63.11913 | 34 ft | 6 kts | 286° |
| 2026-04-25 16:44 | 18.03982 | -63.11941 | 35 ft | 1 kts | 248° |
| 2026-04-25 16:44 | 18.03968 | -63.11950 | 35 ft | 4 kts | 205° |
| 2026-04-25 16:44 | 18.03949 | -63.11942 | 35 ft | 3 kts | 145° |
| 2026-04-25 16:45 | 18.03944 | -63.11908 | 35 ft | 8 kts | 82° |
| 2026-04-25 16:45 | 18.03950 | -63.11880 | 35 ft | 0 kts | 80° |
| 2026-04-25 16:45 | 18.03955 | -63.11849 | 35 ft | 19 kts | 80° |
| 2026-04-25 16:45 | 18.04012 | -63.11439 | 35 ft | 107 kts | 81° |
| 2026-04-25 16:46 | 18.04178 | -63.10357 | 172 ft | 178 kts | 82° |
| 2026-04-25 16:46 | 18.04327 | -63.09142 | 1483 ft | 159 kts | 96° |
| 2026-04-25 16:46 | 18.03989 | -63.08031 | 2784 ft | 169 kts | 127° |
| 2026-04-25 16:46 | 18.03386 | -63.07495 | 3562 ft | 179 kts | 153° |
| 2026-04-25 16:47 | 18.01649 | -63.07100 | 4813 ft | 203 kts | 169° |
| 2026-04-25 16:47 | 18.00101 | -63.06787 | 5078 ft | 248 kts | 167° |
| 2026-04-25 16:47 | 17.98475 | -63.05987 | 5737 ft | 264 kts | 147° |
| 2026-04-25 16:47 | 17.96943 | -63.04886 | 6905 ft | 270 kts | 149° |
| 2026-04-25 16:48 | 17.95239 | -63.04041 | 8075 ft | 273 kts | 159° |
| 2026-04-25 16:48 | 17.93436 | -63.03343 | 9215 ft | 279 kts | 161° |
| 2026-04-25 16:48 | 17.91593 | -63.02636 | 10263 ft | 289 kts | 161° |
| 2026-04-25 16:48 | 17.89582 | -63.01839 | 10455 ft | 329 kts | 160° |
| 2026-04-25 16:49 | 17.87337 | -63.00912 | 10830 ft | 357 kts | 159° |
| 2026-04-25 16:49 | 17.85012 | -62.99920 | 11846 ft | 365 kts | 159° |
| 2026-04-25 16:49 | 17.82672 | -62.98905 | 12862 ft | 371 kts | 158° |
| 2026-04-25 16:49 | 17.80262 | -62.97849 | 13761 ft | 382 kts | 158° |
| 2026-04-25 16:50 | 17.77774 | -62.96753 | 14104 ft | 384 kts | 158° |
| 2026-04-25 16:50 | 17.75339 | -62.95676 | 14439 ft | 386 kts | 158° |
| 2026-04-25 16:50 | 17.72826 | -62.94563 | 14790 ft | 388 kts | 158° |
| 2026-04-25 16:50 | 17.70329 | -62.93458 | 14950 ft | 391 kts | 159° |
| 2026-04-25 16:51 | 17.67825 | -62.92350 | 14991 ft | 391 kts | 159° |
| 2026-04-25 16:51 | 17.65312 | -62.91238 | 15001 ft | 391 kts | 158° |
| 2026-04-25 16:51 | 17.62836 | -62.90143 | 15001 ft | 392 kts | 158° |
| 2026-04-25 16:51 | 17.61140 | -62.89393 | 15005 ft | 392 kts | 158° |
| 2026-04-25 16:52 | 17.57777 | -62.87907 | 15210 ft | 393 kts | 158° |
| 2026-04-25 16:52 | 17.55294 | -62.86810 | 16194 ft | 395 kts | 159° |
| 2026-04-25 16:52 | 17.52745 | -62.85685 | 17019 ft | 400 kts | 159° |
| 2026-04-25 16:52 | 17.50158 | -62.84544 | 17822 ft | 406 kts | 159° |
| 2026-04-25 16:53 | 17.44859 | -62.82267 | 19258 ft | 416 kts | 161° |
| 2026-04-25 16:53 | 17.42162 | -62.81151 | 19940 ft | 419 kts | 161° |
| 2026-04-25 16:53 | 17.39430 | -62.80028 | 20608 ft | 424 kts | 161° |
| 2026-04-25 16:54 | 17.36673 | -62.78897 | 21310 ft | 427 kts | 161° |
| 2026-04-25 16:54 | 17.33891 | -62.77754 | 21996 ft | 431 kts | 162° |
| 2026-04-25 16:54 | 17.31083 | -62.76599 | 22698 ft | 436 kts | 162° |
| 2026-04-25 16:54 | 17.28247 | -62.75432 | 23427 ft | 441 kts | 162° |
| 2026-04-25 16:55 | 17.25379 | -62.74251 | 24047 ft | 445 kts | 162° |
| 2026-04-25 16:55 | 17.22485 | -62.73059 | 24651 ft | 449 kts | 162° |
| 2026-04-25 16:55 | 17.19560 | -62.71855 | 25275 ft | 454 kts | 162° |
| 2026-04-25 16:55 | 17.16610 | -62.70641 | 25906 ft | 458 kts | 162° |
| 2026-04-25 16:56 | 17.13629 | -62.69414 | 26528 ft | 463 kts | 162° |
| 2026-04-25 16:56 | 17.10613 | -62.68174 | 27147 ft | 468 kts | 162° |
| 2026-04-25 16:56 | 17.07569 | -62.66923 | 27745 ft | 472 kts | 162° |
| 2026-04-25 16:56 | 17.04495 | -62.65659 | 28352 ft | 477 kts | 162° |
| 2026-04-25 16:57 | 17.01387 | -62.64383 | 28940 ft | 482 kts | 163° |
| 2026-04-25 16:57 | 16.99316 | -62.63532 | 29332 ft | 485 kts | 163° |
| 2026-04-25 16:57 | 16.95088 | -62.61796 | 30099 ft | 490 kts | 163° |
| 2026-04-25 16:57 | 16.91944 | -62.60505 | 30578 ft | 493 kts | 163° |
| 2026-04-25 16:58 | 16.88748 | -62.59192 | 31188 ft | 492 kts | 163° |
| 2026-04-25 16:58 | 16.85568 | -62.57885 | 31856 ft | 490 kts | 163° |
| 2026-04-25 16:58 | 16.82367 | -62.56570 | 32522 ft | 487 kts | 163° |
| 2026-04-25 16:58 | 16.79223 | -62.55280 | 33174 ft | 484 kts | 163° |
| 2026-04-25 16:59 | 16.76137 | -62.54015 | 33805 ft | 482 kts | 163° |
| 2026-04-25 16:59 | 16.72980 | -62.52721 | 34350 ft | 480 kts | 163° |
| 2026-04-25 16:59 | 16.69920 | -62.51470 | 34849 ft | 478 kts | 163° |
| 2026-04-25 16:59 | 16.66833 | -62.50209 | 35329 ft | 476 kts | 163° |
| 2026-04-25 17:00 | 16.63752 | -62.48952 | 35799 ft | 474 kts | 163° |
| 2026-04-25 17:00 | 16.60689 | -62.47702 | 36256 ft | 473 kts | 163° |
| 2026-04-25 17:00 | 16.57632 | -62.46453 | 36705 ft | 471 kts | 163° |
| 2026-04-25 17:00 | 16.54585 | -62.45209 | 37138 ft | 470 kts | 163° |
| 2026-04-25 17:01 | 16.51542 | -62.43966 | 37546 ft | 469 kts | 163° |
| 2026-04-25 17:01 | 16.48512 | -62.42728 | 37967 ft | 467 kts | 163° |
| 2026-04-25 17:01 | 16.45488 | -62.41494 | 38359 ft | 466 kts | 163° |
| 2026-04-25 17:01 | 16.42470 | -62.40262 | 38730 ft | 465 kts | 163° |
| 2026-04-25 17:02 | 16.39457 | -62.39033 | 39027 ft | 465 kts | 163° |
| 2026-04-25 17:02 | 16.36445 | -62.37805 | 39313 ft | 464 kts | 163° |
| 2026-04-25 17:02 | 16.33439 | -62.36580 | 39592 ft | 464 kts | 163° |
| 2026-04-25 17:02 | 16.30431 | -62.35354 | 39863 ft | 464 kts | 163° |
| 2026-04-25 17:03 | 16.27433 | -62.34133 | 40124 ft | 463 kts | 163° |
| 2026-04-25 17:03 | 16.24430 | -62.32910 | 40389 ft | 463 kts | 163° |
| 2026-04-25 17:03 | 16.21427 | -62.31687 | 40642 ft | 462 kts | 163° |
| 2026-04-25 17:03 | 16.18430 | -62.30467 | 40896 ft | 462 kts | 163° |
| 2026-04-25 17:04 | 16.15430 | -62.29246 | 40963 ft | 463 kts | 163° |
| 2026-04-25 17:04 | 16.09445 | -62.26813 | 40982 ft | 464 kts | 163° |
| 2026-04-25 17:05 | 16.03464 | -62.24382 | 40984 ft | 464 kts | 163° |
| 2026-04-25 17:05 | 15.94438 | -62.20717 | 40984 ft | 464 kts | 163° |
| 2026-04-25 17:06 | 15.88425 | -62.18280 | 40984 ft | 464 kts | 163° |
| 2026-04-25 17:06 | 15.82412 | -62.15845 | 40981 ft | 464 kts | 163° |
| 2026-04-25 17:07 | 15.76400 | -62.13410 | 40981 ft | 464 kts | 163° |
| 2026-04-25 17:07 | 15.70393 | -62.10977 | 40984 ft | 463 kts | 163° |
| 2026-04-25 17:08 | 15.64380 | -62.08543 | 40984 ft | 463 kts | 163° |
| 2026-04-25 17:08 | 15.58377 | -62.06115 | 40986 ft | 463 kts | 163° |
| 2026-04-25 17:09 | 15.52371 | -62.03687 | 40984 ft | 463 kts | 163° |
| 2026-04-25 17:09 | 15.46373 | -62.01265 | 40982 ft | 463 kts | 163° |
| 2026-04-25 17:10 | 15.40374 | -61.98843 | 40986 ft | 462 kts | 163° |
| 2026-04-25 17:10 | 15.34425 | -61.96442 | 40982 ft | 462 kts | 163° |
| 2026-04-25 17:11 | 15.28432 | -61.94026 | 40985 ft | 462 kts | 163° |
| 2026-04-25 17:11 | 15.22447 | -61.91615 | 40984 ft | 461 kts | 163° |
| 2026-04-25 17:12 | 15.16466 | -61.89210 | 40985 ft | 461 kts | 163° |
| 2026-04-25 17:12 | 15.10479 | -61.86803 | 40989 ft | 461 kts | 163° |
| 2026-04-25 17:13 | 15.06482 | -61.85195 | 40985 ft | 461 kts | 163° |
| 2026-04-25 17:13 | 14.98526 | -61.81997 | 40976 ft | 461 kts | 163° |
| 2026-04-25 17:14 | 14.92550 | -61.79596 | 40980 ft | 460 kts | 163° |
| 2026-04-25 17:14 | 14.86578 | -61.77199 | 40976 ft | 460 kts | 163° |
| 2026-04-25 17:15 | 14.80606 | -61.74803 | 40985 ft | 460 kts | 162° |
| 2026-04-25 17:15 | 14.74643 | -61.72411 | 40985 ft | 460 kts | 162° |
| 2026-04-25 17:16 | 14.68674 | -61.70019 | 40980 ft | 460 kts | 162° |
| 2026-04-25 17:16 | 14.62740 | -61.67642 | 40976 ft | 460 kts | 162° |
| 2026-04-25 17:17 | 14.56738 | -61.65240 | 40976 ft | 460 kts | 162° |
| 2026-04-25 17:17 | 14.50768 | -61.62852 | 40979 ft | 460 kts | 162° |
| 2026-04-25 17:18 | 14.44799 | -61.60466 | 40974 ft | 460 kts | 162° |
| 2026-04-25 17:18 | 14.38832 | -61.58085 | 40969 ft | 460 kts | 162° |
| 2026-04-25 17:19 | 14.32864 | -61.55704 | 40977 ft | 460 kts | 162° |
| 2026-04-25 17:19 | 14.26934 | -61.53338 | 40974 ft | 460 kts | 162° |
| 2026-04-25 17:20 | 14.20965 | -61.50957 | 40975 ft | 460 kts | 162° |
| 2026-04-25 17:20 | 14.14993 | -61.48576 | 40974 ft | 460 kts | 162° |
| 2026-04-25 17:21 | 14.09021 | -61.46197 | 40974 ft | 460 kts | 162° |
| 2026-04-25 17:21 | 14.03055 | -61.43821 | 40973 ft | 460 kts | 162° |
| 2026-04-25 17:22 | 13.99060 | -61.42231 | 40973 ft | 460 kts | 162° |
| 2026-04-25 17:22 | 13.91112 | -61.39069 | 40973 ft | 460 kts | 162° |
| 2026-04-25 17:23 | 13.85144 | -61.36696 | 40972 ft | 460 kts | 162° |
| 2026-04-25 17:23 | 13.79175 | -61.34324 | 40973 ft | 460 kts | 162° |
| 2026-04-25 17:24 | 13.74213 | -61.32354 | 40976 ft | 459 kts | 162° |
| 2026-04-25 17:24 | 13.68251 | -61.29987 | 40973 ft | 459 kts | 162° |
| 2026-04-25 17:25 | 13.62294 | -61.27627 | 40975 ft | 459 kts | 162° |
| 2026-04-25 17:25 | 13.56335 | -61.25268 | 40971 ft | 459 kts | 162° |
| 2026-04-25 17:26 | 13.50378 | -61.22909 | 40975 ft | 458 kts | 162° |
| 2026-04-25 17:26 | 13.44428 | -61.20552 | 40976 ft | 458 kts | 162° |
| 2026-04-25 17:27 | 13.38513 | -61.18211 | 40975 ft | 458 kts | 162° |
| 2026-04-25 17:27 | 13.33533 | -61.16241 | 40977 ft | 458 kts | 162° |
| 2026-04-25 17:28 | 13.26619 | -61.13507 | 40977 ft | 458 kts | 162° |
| 2026-04-25 17:28 | 13.20672 | -61.11157 | 40977 ft | 457 kts | 162° |
| 2026-04-25 17:29 | 13.14733 | -61.08812 | 40975 ft | 457 kts | 162° |
| 2026-04-25 17:29 | 13.08791 | -61.06466 | 40975 ft | 458 kts | 162° |
| 2026-04-25 17:30 | 13.02844 | -61.04120 | 40971 ft | 458 kts | 162° |
| 2026-04-25 17:30 | 12.96891 | -61.01772 | 40975 ft | 459 kts | 162° |
| 2026-04-25 17:31 | 12.90930 | -60.99423 | 40972 ft | 459 kts | 162° |
| 2026-04-25 17:31 | 12.84968 | -60.97077 | 40967 ft | 459 kts | 162° |
| 2026-04-25 17:32 | 12.79001 | -60.94731 | 40967 ft | 459 kts | 162° |
| 2026-04-25 17:32 | 12.73029 | -60.92381 | 40963 ft | 460 kts | 162° |
| 2026-04-25 17:33 | 12.67096 | -60.90047 | 40962 ft | 460 kts | 162° |
| 2026-04-25 17:33 | 12.61125 | -60.87700 | 40963 ft | 460 kts | 162° |
| 2026-04-25 17:34 | 12.55142 | -60.85349 | 40968 ft | 460 kts | 162° |
| 2026-04-25 17:34 | 12.49160 | -60.83000 | 40966 ft | 460 kts | 162° |
| 2026-04-25 17:35 | 12.43191 | -60.80653 | 40966 ft | 460 kts | 161° |
| 2026-04-25 17:35 | 12.37212 | -60.78294 | 40964 ft | 460 kts | 161° |
| 2026-04-25 17:36 | 12.31235 | -60.75934 | 40964 ft | 460 kts | 161° |
| 2026-04-25 17:36 | 12.25263 | -60.73578 | 40964 ft | 460 kts | 161° |
| 2026-04-25 17:37 | 12.19322 | -60.71236 | 40964 ft | 460 kts | 161° |
| 2026-04-25 17:37 | 12.13307 | -60.68866 | 40955 ft | 460 kts | 161° |
| 2026-04-25 17:38 | 12.08344 | -60.66910 | 40959 ft | 460 kts | 161° |
| 2026-04-25 17:38 | 12.01354 | -60.64158 | 40961 ft | 461 kts | 161° |
| 2026-04-25 17:39 | 11.95413 | -60.61821 | 40961 ft | 461 kts | 161° |
| 2026-04-25 17:39 | 11.89432 | -60.59468 | 40957 ft | 461 kts | 161° |
| 2026-04-25 17:40 | 11.83451 | -60.57117 | 40957 ft | 460 kts | 161° |
| 2026-04-25 17:40 | 11.77473 | -60.54768 | 40956 ft | 460 kts | 161° |
| 2026-04-25 17:41 | 11.71496 | -60.52421 | 40955 ft | 460 kts | 161° |
| 2026-04-25 17:41 | 11.65524 | -60.50078 | 40950 ft | 460 kts | 161° |
| 2026-04-25 17:42 | 11.59549 | -60.47736 | 40952 ft | 460 kts | 161° |
| 2026-04-25 17:42 | 11.53576 | -60.45395 | 40952 ft | 460 kts | 160° |
| 2026-04-25 17:43 | 11.47591 | -60.43049 | 40954 ft | 461 kts | 160° |
| 2026-04-25 17:43 | 11.41604 | -60.40702 | 40952 ft | 461 kts | 160° |
| 2026-04-25 17:44 | 11.35611 | -60.38355 | 40953 ft | 461 kts | 160° |
| 2026-04-25 17:44 | 11.29617 | -60.36008 | 40954 ft | 462 kts | 160° |
| 2026-04-25 17:45 | 11.24631 | -60.34057 | 40951 ft | 462 kts | 160° |
| 2026-04-25 17:45 | 11.17608 | -60.31310 | 40951 ft | 463 kts | 160° |
| 2026-04-25 17:46 | 11.11596 | -60.28960 | 40951 ft | 463 kts | 160° |
| 2026-04-25 17:46 | 11.05584 | -60.26610 | 40947 ft | 463 kts | 160° |
| 2026-04-25 17:47 | 10.99613 | -60.24278 | 40950 ft | 463 kts | 160° |
| 2026-04-25 17:47 | 10.93588 | -60.21925 | 40953 ft | 463 kts | 160° |
| 2026-04-25 17:48 | 10.84566 | -60.18407 | 40954 ft | 463 kts | 160° |
| 2026-04-25 17:49 | 10.78547 | -60.16062 | 40950 ft | 463 kts | 160° |
| 2026-04-25 17:49 | 10.72535 | -60.13718 | 40951 ft | 463 kts | 160° |
| 2026-04-25 17:50 | 10.66520 | -60.11374 | 40953 ft | 463 kts | 160° |
| 2026-04-25 17:50 | 10.60513 | -60.09035 | 40951 ft | 462 kts | 160° |
| 2026-04-25 17:51 | 10.54506 | -60.06696 | 40950 ft | 462 kts | 160° |
| 2026-04-25 17:51 | 10.48496 | -60.04356 | 40951 ft | 462 kts | 160° |
| 2026-04-25 17:52 | 10.42485 | -60.02018 | 40953 ft | 463 kts | 160° |
| 2026-04-25 17:52 | 10.36471 | -59.99679 | 40950 ft | 463 kts | 160° |
| 2026-04-25 17:53 | 10.30457 | -59.97342 | 40951 ft | 463 kts | 160° |
| 2026-04-25 17:53 | 10.24435 | -59.95002 | 40951 ft | 463 kts | 160° |
| 2026-04-25 17:54 | 10.18414 | -59.92663 | 40946 ft | 464 kts | 160° |
| 2026-04-25 17:54 | 10.12386 | -59.90323 | 40950 ft | 464 kts | 160° |
| 2026-04-25 17:55 | 10.06348 | -59.87983 | 40948 ft | 464 kts | 160° |
| 2026-04-25 17:55 | 10.00349 | -59.85658 | 40948 ft | 465 kts | 160° |
| 2026-04-25 17:56 | 9.94311 | -59.83317 | 40947 ft | 465 kts | 160° |
| 2026-04-25 17:56 | 9.88260 | -59.80971 | 40950 ft | 466 kts | 160° |
| 2026-04-25 17:57 | 9.82200 | -59.78623 | 40951 ft | 466 kts | 160° |
| 2026-04-25 17:57 | 9.76144 | -59.76277 | 40950 ft | 466 kts | 160° |
| 2026-04-25 17:58 | 9.70082 | -59.73930 | 40947 ft | 466 kts | 160° |
| 2026-04-25 17:58 | 9.64020 | -59.71584 | 40947 ft | 466 kts | 160° |
| 2026-04-25 17:59 | 9.57965 | -59.69242 | 40945 ft | 466 kts | 160° |
| 2026-04-25 17:59 | 9.51912 | -59.66901 | 40947 ft | 465 kts | 160° |
| 2026-04-25 18:00 | 9.45862 | -59.64563 | 40944 ft | 465 kts | 160° |
| 2026-04-25 18:00 | 9.39813 | -59.62225 | 40943 ft | 465 kts | 160° |
| 2026-04-25 18:01 | 9.33808 | -59.59906 | 40939 ft | 465 kts | 160° |
| 2026-04-25 18:01 | 9.27727 | -59.57561 | 40940 ft | 464 kts | 159° |
| 2026-04-25 18:02 | 9.21728 | -59.55247 | 40941 ft | 464 kts | 159° |
| 2026-04-25 18:02 | 9.15701 | -59.52922 | 40938 ft | 463 kts | 159° |
| 2026-04-25 18:03 | 9.09681 | -59.50600 | 40940 ft | 463 kts | 159° |
| 2026-04-25 18:03 | 9.03668 | -59.48282 | 40938 ft | 462 kts | 159° |
| 2026-04-25 18:04 | 8.97655 | -59.45964 | 40938 ft | 463 kts | 159° |
| 2026-04-25 18:04 | 8.91708 | -59.43465 | 40935 ft | 463 kts | 151° |
| 2026-04-25 18:04 | 8.89033 | -59.41668 | 40935 ft | 462 kts | 140° |
| 2026-04-25 18:05 | 8.86723 | -59.39408 | 40936 ft | 463 kts | 130° |
| 2026-04-25 18:05 | 8.82853 | -59.34202 | 40935 ft | 464 kts | 126° |
| 2026-04-25 18:06 | 8.79043 | -59.28934 | 40937 ft | 464 kts | 127° |
| 2026-04-25 18:06 | 8.75077 | -59.23785 | 40935 ft | 464 kts | 128° |
| 2026-04-25 18:07 | 8.71040 | -59.18688 | 40934 ft | 464 kts | 129° |
| 2026-04-25 18:07 | 8.66995 | -59.13601 | 40936 ft | 464 kts | 129° |
| 2026-04-25 18:08 | 8.62977 | -59.08543 | 40936 ft | 464 kts | 129° |
| 2026-04-25 18:08 | 8.58940 | -59.03458 | 40933 ft | 464 kts | 129° |
| 2026-04-25 18:09 | 8.54901 | -58.98371 | 40932 ft | 464 kts | 129° |
| 2026-04-25 18:09 | 8.50428 | -58.93696 | 40932 ft | 463 kts | 143° |
| 2026-04-25 18:10 | 8.44702 | -58.90763 | 40938 ft | 464 kts | 162° |
| 2026-04-25 18:10 | 8.38505 | -58.88951 | 40936 ft | 464 kts | 164° |
| 2026-04-25 18:11 | 8.32314 | -58.87096 | 40931 ft | 463 kts | 162° |
| 2026-04-25 18:11 | 8.26194 | -58.85089 | 40830 ft | 459 kts | 161° |
| 2026-04-25 18:11 | 8.23225 | -58.84087 | 40047 ft | 454 kts | 161° |
| 2026-04-25 18:12 | 8.20233 | -58.83071 | 39696 ft | 459 kts | 161° |
| 2026-04-25 18:12 | 8.17196 | -58.82039 | 39220 ft | 462 kts | 161° |
| 2026-04-25 18:12 | 8.14136 | -58.81000 | 38732 ft | 464 kts | 161° |
| 2026-04-25 18:12 | 8.12111 | -58.80314 | 38378 ft | 464 kts | 161° |
| 2026-04-25 18:13 | 8.09049 | -58.79278 | 37821 ft | 465 kts | 161° |
| 2026-04-25 18:13 | 8.05983 | -58.78241 | 37311 ft | 465 kts | 161° |
| 2026-04-25 18:13 | 8.02907 | -58.77202 | 36805 ft | 466 kts | 161° |
| 2026-04-25 18:14 | 7.96750 | -58.75122 | 35791 ft | 467 kts | 161° |
| 2026-04-25 18:14 | 7.93669 | -58.74081 | 35234 ft | 467 kts | 161° |
| 2026-04-25 18:14 | 7.90582 | -58.73039 | 34680 ft | 468 kts | 161° |
| 2026-04-25 18:14 | 7.87498 | -58.71998 | 34133 ft | 468 kts | 161° |
| 2026-04-25 18:15 | 7.84402 | -58.70952 | 33527 ft | 468 kts | 161° |
| 2026-04-25 18:15 | 7.81304 | -58.69906 | 32939 ft | 471 kts | 161° |
| 2026-04-25 18:15 | 7.78190 | -58.68855 | 32357 ft | 474 kts | 161° |
| 2026-04-25 18:15 | 7.75053 | -58.67796 | 31795 ft | 477 kts | 161° |
| 2026-04-25 18:16 | 7.71899 | -58.66732 | 31201 ft | 479 kts | 161° |
| 2026-04-25 18:16 | 7.68733 | -58.65664 | 30599 ft | 481 kts | 161° |
| 2026-04-25 18:16 | 7.62351 | -58.63525 | 29208 ft | 482 kts | 162° |
| 2026-04-25 18:17 | 7.59180 | -58.62464 | 28498 ft | 478 kts | 162° |
| 2026-04-25 18:17 | 7.56085 | -58.61429 | 27834 ft | 472 kts | 161° |
| 2026-04-25 18:17 | 7.52983 | -58.60392 | 27173 ft | 467 kts | 161° |
| 2026-04-25 18:17 | 7.49910 | -58.59363 | 26517 ft | 463 kts | 161° |
| 2026-04-25 18:18 | 7.46881 | -58.58350 | 25881 ft | 459 kts | 161° |
| 2026-04-25 18:18 | 7.43848 | -58.57335 | 25233 ft | 455 kts | 161° |
| 2026-04-25 18:18 | 7.40859 | -58.56335 | 24618 ft | 451 kts | 161° |
| 2026-04-25 18:18 | 7.37893 | -58.55342 | 23989 ft | 447 kts | 161° |
| 2026-04-25 18:19 | 7.34943 | -58.54356 | 23344 ft | 444 kts | 161° |
| 2026-04-25 18:19 | 7.32026 | -58.53380 | 22640 ft | 439 kts | 161° |
| 2026-04-25 18:19 | 7.29144 | -58.52416 | 22000 ft | 434 kts | 161° |
| 2026-04-25 18:19 | 7.26290 | -58.51462 | 21385 ft | 430 kts | 160° |
| 2026-04-25 18:20 | 7.23465 | -58.50518 | 20778 ft | 425 kts | 160° |
| 2026-04-25 18:20 | 7.20667 | -58.49582 | 20184 ft | 421 kts | 160° |
| 2026-04-25 18:20 | 7.17906 | -58.48659 | 19595 ft | 417 kts | 160° |
| 2026-04-25 18:20 | 7.15163 | -58.47742 | 19013 ft | 413 kts | 160° |
| 2026-04-25 18:21 | 7.12451 | -58.46836 | 18440 ft | 409 kts | 160° |
| 2026-04-25 18:21 | 7.09767 | -58.45939 | 17824 ft | 405 kts | 160° |
| 2026-04-25 18:21 | 7.07106 | -58.45050 | 17206 ft | 401 kts | 160° |
| 2026-04-25 18:21 | 7.04470 | -58.44170 | 16622 ft | 397 kts | 160° |
| 2026-04-25 18:22 | 7.01863 | -58.43299 | 16159 ft | 393 kts | 160° |
| 2026-04-25 18:22 | 7.00144 | -58.42725 | 15920 ft | 392 kts | 160° |
| 2026-04-25 18:22 | 6.96695 | -58.41573 | 15104 ft | 389 kts | 160° |
| 2026-04-25 18:22 | 6.94142 | -58.40721 | 14460 ft | 383 kts | 160° |
| 2026-04-25 18:23 | 6.91619 | -58.39878 | 13870 ft | 380 kts | 160° |
| 2026-04-25 18:23 | 6.89118 | -58.39042 | 13274 ft | 377 kts | 160° |
| 2026-04-25 18:23 | 6.86638 | -58.38213 | 12697 ft | 374 kts | 160° |
| 2026-04-25 18:23 | 6.84184 | -58.37393 | 12153 ft | 370 kts | 160° |
| 2026-04-25 18:24 | 6.81746 | -58.36578 | 11622 ft | 367 kts | 160° |
| 2026-04-25 18:24 | 6.79333 | -58.35772 | 11174 ft | 364 kts | 160° |
| 2026-04-25 18:24 | 6.76935 | -58.34970 | 10898 ft | 362 kts | 160° |
| 2026-04-25 18:25 | 6.75288 | -58.34421 | 10823 ft | 345 kts | 159° |
| 2026-04-25 18:25 | 6.73097 | -58.33693 | 10701 ft | 316 kts | 159° |
| 2026-04-25 18:25 | 6.71070 | -58.33020 | 10598 ft | 295 kts | 159° |
| 2026-04-25 18:25 | 6.69161 | -58.32388 | 10488 ft | 285 kts | 160° |
| 2026-04-25 18:26 | 6.67240 | -58.32030 | 10336 ft | 287 kts | 176° |
| 2026-04-25 18:26 | 6.65224 | -58.32320 | 10030 ft | 292 kts | 192° |
| 2026-04-25 18:26 | 6.63330 | -58.32906 | 9523 ft | 295 kts | 196° |
| 2026-04-25 18:26 | 6.61340 | -58.33607 | 8977 ft | 296 kts | 197° |
| 2026-04-25 18:27 | 6.59426 | -58.34292 | 8478 ft | 296 kts | 197° |
| 2026-04-25 18:27 | 6.57509 | -58.34973 | 7990 ft | 290 kts | 197° |
| 2026-04-25 18:27 | 6.55626 | -58.35635 | 7513 ft | 283 kts | 197° |
| 2026-04-25 18:27 | 6.53775 | -58.36281 | 7100 ft | 281 kts | 197° |
| 2026-04-25 18:28 | 6.51931 | -58.36919 | 6709 ft | 281 kts | 197° |
| 2026-04-25 18:28 | 6.50069 | -58.37560 | 6258 ft | 284 kts | 197° |
| 2026-04-25 18:28 | 6.48189 | -58.38207 | 5772 ft | 285 kts | 197° |
| 2026-04-25 18:29 | 6.44576 | -58.39452 | 4974 ft | 259 kts | 197° |
| 2026-04-25 18:29 | 6.42930 | -58.40020 | 4639 ft | 243 kts | 197° |
| 2026-04-25 18:30 | 6.38325 | -58.40903 | 3622 ft | 206 kts | 154° |
| 2026-04-25 18:30 | 6.37227 | -58.40094 | 3467 ft | 192 kts | 137° |
| 2026-04-25 18:30 | 6.36272 | -58.39140 | 3186 ft | 195 kts | 130° |
| 2026-04-25 18:30 | 6.35531 | -58.37995 | 2929 ft | 194 kts | 113° |
| 2026-04-25 18:31 | 6.35188 | -58.36729 | 2866 ft | 185 kts | 94° |
| 2026-04-25 18:31 | 6.35285 | -58.35453 | 2892 ft | 184 kts | 76° |
| 2026-04-25 18:31 | 6.35827 | -58.34296 | 2867 ft | 185 kts | 56° |
| 2026-04-25 18:31 | 6.36767 | -58.33410 | 2864 ft | 187 kts | 33° |
| 2026-04-25 18:32 | 6.37986 | -58.32947 | 2905 ft | 190 kts | 12° |
| 2026-04-25 18:32 | 6.39321 | -58.32842 | 2800 ft | 195 kts | 5° |
| 2026-04-25 18:32 | 6.40655 | -58.32797 | 2425 ft | 189 kts | 4° |
| 2026-04-25 18:32 | 6.41914 | -58.32670 | 2023 ft | 172 kts | 17° |
| 2026-04-25 18:33 | 6.42933 | -58.32154 | 1645 ft | 160 kts | 42° |
| 2026-04-25 18:33 | 6.43779 | -58.31446 | 1486 ft | 160 kts | 41° |
| 2026-04-25 18:33 | 6.44605 | -58.30701 | 1265 ft | 158 kts | 46° |
| 2026-04-25 18:33 | 6.45380 | -58.29911 | 1044 ft | 159 kts | 47° |
| 2026-04-25 18:34 | 6.46155 | -58.29126 | 833 ft | 157 kts | 46° |
| 2026-04-25 18:34 | 6.46931 | -58.28353 | 632 ft | 159 kts | 45° |
| 2026-04-25 18:34 | 6.47725 | -58.27568 | 415 ft | 158 kts | 46° |
| 2026-04-25 18:34 | 6.48491 | -58.26788 | 214 ft | 156 kts | 45° |
| 2026-04-25 18:35 | 6.49229 | -58.26047 | 111 ft | 135 kts | 45° |
| 2026-04-25 18:35 | 6.49801 | -58.25466 | 113 ft | 100 kts | 45° |
| 2026-04-25 18:35 | 6.50203 | -58.25068 | 111 ft | 63 kts | 45° |
| 2026-04-25 18:35 | 6.50435 | -58.24836 | 111 ft | 27 kts | 45° |
| 2026-04-25 18:36 | 6.50517 | -58.24754 | 112 ft | 9 kts | 45° |
| 2026-04-25 18:36 | 6.50560 | -58.24710 | 113 ft | 9 kts | 45° |
| 2026-04-25 18:36 | 6.50612 | -58.24657 | 112 ft | 11 kts | 45° |
| 2026-04-25 18:36 | 6.50641 | -58.24648 | 112 ft | 2 kts | 346° |
| 2026-04-25 18:37 | 6.50653 | -58.24668 | 111 ft | 7 kts | 292° |
| 2026-04-25 18:37 | 6.50657 | -58.24724 | 110 ft | 8 kts | 263° |
| 2026-04-25 18:37 | 6.50639 | -58.24774 | 110 ft | 7 kts | 239° |
| 2026-04-25 18:37 | 6.50606 | -58.24822 | 111 ft | 11 kts | 233° |
| 2026-04-25 18:38 | 6.50536 | -58.24898 | 110 ft | 19 kts | 223° |
| 2026-04-25 18:38 | 6.50438 | -58.24991 | 110 ft | 11 kts | 224° |
| 2026-04-25 18:38 | 6.50388 | -58.25040 | 109 ft | 10 kts | 224° |
| 2026-04-25 18:38 | 6.50341 | -58.25088 | 110 ft | 9 kts | 225° |
| 2026-04-25 18:39 | 6.50286 | -58.25143 | 112 ft | 12 kts | 224° |
| 2026-04-25 18:39 | 6.50216 | -58.25212 | 112 ft | 15 kts | 224° |
| 2026-04-25 18:39 | 6.50147 | -58.25281 | 111 ft | 13 kts | 225° |
| 2026-04-25 18:39 | 6.50117 | -58.25325 | 113 ft | 3 kts | 262° |
| 2026-04-25 18:40 | 6.50124 | -58.25351 | 113 ft | 7 kts | 291° |
| 2026-04-25 18:40 | 6.50153 | -58.25392 | 110 ft | 6 kts | 312° |
| 2026-04-25 18:40 | 6.50179 | -58.25417 | 111 ft | 4 kts | 317° |
| 2026-04-25 18:40 | 6.50197 | -58.25435 | 109 ft | 3 kts | 315° |
| 2026-04-25 18:41 | 6.50210 | -58.25447 | 110 ft | 2 kts | 316° |
| 2026-04-25 18:41 | 6.50216 | -58.25455 | 111 ft | 1 kts | 309° |
| 2026-04-25 18:41 | 6.50218 | -58.25457 | 112 ft | 0 kts | 307° |